Inicio METAR Ruta Wind Satelite

Informe Meteorológico

Fecha: 2021/09/21 15:53:16 Local
2021.09.21 20:53 UTC


Operación:
SKLC 212000Z 00000KT 9999 SCT020 30/25 Q1008 RMK A2978 =